createdAt,value
2022-08-17T00:00:44.136Z,14.27
2022-08-17T00:02:30.246Z,12.00
2022-08-17T00:04:19.381Z,15.38
2022-08-17T00:06:02.889Z,11.55
2022-08-17T00:07:46.292Z,13.05
2022-08-17T00:09:28.384Z,15.50
2022-08-17T00:11:12.652Z,18.85
2022-08-17T00:12:55.338Z,15.18
2022-08-17T00:14:38.392Z,10.85
2022-08-17T00:16:22.618Z,12.90
2022-08-17T00:18:53.910Z,11.60
2022-08-17T00:20:32.068Z,17.90
2022-08-17T00:22:33.039Z,13.32
2022-08-17T00:24:19.515Z,14.63
2022-08-17T00:26:00.731Z,22.88
2022-08-17T00:27:42.765Z,13.10
2022-08-17T00:29:24.955Z,13.82
2022-08-17T00:31:08.737Z,15.25
2022-08-17T00:33:12.321Z,13.48
2022-08-17T00:34:52.677Z,13.63
2022-08-17T00:36:34.725Z,15.50
2022-08-17T00:38:17.300Z,14.18
2022-08-17T00:40:00.729Z,15.70
2022-08-17T00:41:43.498Z,13.70
2022-08-17T00:43:29.763Z,15.88
2022-08-17T00:45:14.485Z,12.95
2022-08-17T00:46:56.972Z,16.27
2022-08-17T00:48:40.199Z,13.80
2022-08-17T00:50:22.467Z,13.80
2022-08-17T00:52:11.977Z,14.90
2022-08-17T00:53:57.705Z,12.82
2022-08-17T00:55:41.192Z,17.63
2022-08-17T00:57:24.955Z,13.20
2022-08-17T00:59:08.549Z,16.48
2022-08-17T01:00:51.143Z,15.88
2022-08-17T01:02:42.310Z,14.68
2022-08-17T01:04:24.549Z,17.92
2022-08-17T01:06:08.171Z,16.02
2022-08-17T01:07:51.355Z,18.30
2022-08-17T01:09:33.751Z,15.00
2022-08-17T01:11:17.264Z,12.90
2022-08-17T01:13:00.772Z,15.90
2022-08-17T01:14:43.189Z,16.27
2022-08-17T01:16:26.864Z,16.35
2022-08-17T01:18:10.400Z,15.15
2022-08-17T01:19:52.458Z,22.88
2022-08-17T01:21:40.868Z,15.15
2022-08-17T01:23:25.001Z,23.55
2022-08-17T01:25:10.336Z,17.95
2022-08-17T01:26:52.686Z,14.30
2022-08-17T01:28:54.348Z,12.85
2022-08-17T01:30:58.000Z,15.55
2022-08-17T01:32:40.607Z,14.60
2022-08-17T01:34:24.884Z,17.85
2022-08-17T01:36:18.936Z,11.43
2022-08-17T01:38:01.051Z,13.13
2022-08-17T01:39:47.894Z,18.05
2022-08-17T01:41:30.299Z,12.25
2022-08-17T01:43:16.044Z,13.07
2022-08-17T01:45:02.881Z,14.60
2022-08-17T01:46:45.109Z,14.95
2022-08-17T01:48:32.238Z,15.32
2022-08-17T01:50:17.165Z,13.48
2022-08-17T01:51:58.370Z,14.13
2022-08-17T01:53:45.370Z,12.80
2022-08-17T01:55:33.799Z,12.98
2022-08-17T01:57:15.866Z,12.35
2022-08-17T01:58:58.039Z,13.57
2022-08-17T02:01:00.159Z,13.98
2022-08-17T02:02:45.963Z,14.15
2022-08-17T02:04:28.163Z,15.48
2022-08-17T02:06:16.062Z,14.65
2022-08-17T02:08:19.832Z,13.65
2022-08-17T02:10:02.058Z,12.80
2022-08-17T02:11:46.514Z,14.13
2022-08-17T02:13:29.814Z,11.65
2022-08-17T02:15:15.107Z,12.85
2022-08-17T02:16:58.754Z,20.00
2022-08-17T02:18:41.072Z,17.48
2022-08-17T02:20:41.877Z,15.13
2022-08-17T02:22:26.100Z,15.90
2022-08-17T02:24:10.828Z,16.67
2022-08-17T02:25:53.013Z,12.98
2022-08-17T02:27:36.976Z,13.13
2022-08-17T02:29:19.960Z,14.32
2022-08-17T02:31:07.661Z,14.60
2022-08-17T02:32:50.369Z,13.95
2022-08-17T02:34:32.666Z,12.25
2022-08-17T02:36:15.177Z,14.23
2022-08-17T02:37:57.892Z,15.30
2022-08-17T02:39:40.088Z,10.70
2022-08-17T02:41:22.369Z,15.85
2022-08-17T02:43:06.221Z,15.38
2022-08-17T02:44:48.401Z,14.15
2022-08-17T02:46:32.230Z,14.32
2022-08-17T02:48:14.446Z,15.35
2022-08-17T02:50:15.066Z,13.77
2022-08-17T02:51:58.755Z,15.43
2022-08-17T02:53:40.991Z,14.65
2022-08-17T02:55:25.539Z,17.48
2022-08-17T02:57:07.718Z,14.30
2022-08-17T02:58:51.424Z,15.98
2022-08-17T03:00:35.812Z,18.00
2022-08-17T03:02:18.095Z,13.88
2022-08-17T03:04:00.730Z,13.82
2022-08-17T03:05:43.005Z,13.93
2022-08-17T03:07:25.188Z,19.30
2022-08-17T03:09:07.333Z,17.40
2022-08-17T03:10:50.499Z,16.48
2022-08-17T03:12:36.197Z,15.55
2022-08-17T03:14:26.236Z,11.95
2022-08-17T03:16:09.085Z,15.43
2022-08-17T03:17:52.359Z,13.98
2022-08-17T03:19:34.792Z,16.73
2022-08-17T03:21:21.759Z,14.55
2022-08-17T03:23:03.929Z,19.88
2022-08-17T03:24:48.909Z,18.17
2022-08-17T03:26:32.299Z,17.13
2022-08-17T03:28:13.434Z,15.85
2022-08-17T03:29:56.996Z,14.75
2022-08-17T03:31:39.330Z,19.15
2022-08-17T03:33:21.707Z,15.07
2022-08-17T03:35:04.231Z,17.48
2022-08-17T03:36:46.497Z,16.50
2022-08-17T03:38:28.973Z,14.90
2022-08-17T03:40:36.978Z,16.98
2022-08-17T03:42:31.884Z,17.13
2022-08-17T03:44:14.977Z,18.60
2022-08-17T03:46:28.777Z,18.73
2022-08-17T03:48:34.477Z,20.23
2022-08-17T03:50:33.898Z,16.88
2022-08-17T03:52:33.477Z,18.55
2022-08-17T03:54:33.090Z,20.35
2022-08-17T03:56:32.771Z,16.50
2022-08-17T03:58:15.113Z,22.80
2022-08-17T03:59:57.570Z,13.73
2022-08-17T04:01:40.362Z,18.42
2022-08-17T04:03:22.696Z,16.05
2022-08-17T04:05:05.249Z,18.20
2022-08-17T04:06:47.979Z,16.80
2022-08-17T04:08:30.260Z,17.88
2022-08-17T04:10:12.477Z,16.65
2022-08-17T04:11:54.372Z,18.48
2022-08-17T04:13:39.197Z,18.58
2022-08-17T04:15:21.658Z,23.88
2022-08-17T04:17:05.348Z,15.27
2022-08-17T04:18:47.627Z,17.80
2022-08-17T04:20:31.051Z,22.27
2022-08-17T04:22:33.408Z,19.35
2022-08-17T04:24:15.150Z,20.38
2022-08-17T04:25:57.497Z,26.50
2022-08-17T04:27:39.389Z,22.67
2022-08-17T04:29:21.874Z,21.88
2022-08-17T04:31:04.701Z,16.15
2022-08-17T04:33:03.523Z,22.02
2022-08-17T04:34:47.438Z,19.45
2022-08-17T04:36:29.884Z,18.75
2022-08-17T04:38:12.433Z,22.48
2022-08-17T04:40:08.858Z,20.80
2022-08-17T04:42:17.099Z,19.63
2022-08-17T04:43:59.690Z,18.15
2022-08-17T04:45:51.211Z,20.05
2022-08-17T04:47:37.647Z,15.80
2022-08-17T04:49:21.102Z,18.48
2022-08-17T04:51:04.716Z,19.60
2022-08-17T04:52:47.322Z,25.05
2022-08-17T04:54:29.611Z,14.90
2022-08-17T04:56:16.616Z,17.05
2022-08-17T04:57:59.420Z,16.23
2022-08-17T04:59:41.436Z,18.98
2022-08-17T05:01:25.713Z,20.80
2022-08-17T05:03:07.937Z,19.27
2022-08-17T05:04:51.626Z,16.27
2022-08-17T05:06:34.098Z,18.77
2022-08-17T05:08:16.587Z,16.85
2022-08-17T05:09:58.783Z,19.73
2022-08-17T05:11:45.059Z,22.63
2022-08-17T05:13:29.579Z,20.15
2022-08-17T05:15:15.912Z,22.35
2022-08-17T05:16:57.955Z,19.50
2022-08-17T05:18:41.933Z,20.83
2022-08-17T05:20:26.464Z,16.52
2022-08-17T05:22:08.652Z,25.17
2022-08-17T05:23:55.092Z,13.52
2022-08-17T05:25:42.906Z,18.15
2022-08-17T05:27:35.285Z,15.93
2022-08-17T05:29:18.787Z,17.40
2022-08-17T05:31:03.549Z,17.02
2022-08-17T05:32:53.835Z,24.88
2022-08-17T05:34:36.571Z,19.77
2022-08-17T05:36:43.580Z,15.85
2022-08-17T05:38:24.646Z,24.05
2022-08-17T05:40:08.071Z,21.58
2022-08-17T05:41:50.520Z,27.00
2022-08-17T05:43:34.875Z,29.13
2022-08-17T05:45:28.101Z,23.45
2022-08-17T05:47:20.564Z,13.90
2022-08-17T05:49:04.988Z,16.17
2022-08-17T05:50:52.497Z,13.75
2022-08-17T05:52:41.233Z,15.25
2022-08-17T05:54:34.074Z,19.23
2022-08-17T05:56:29.464Z,16.35
2022-08-17T05:58:21.098Z,20.45
2022-08-17T06:00:14.222Z,23.13
2022-08-17T06:02:06.876Z,20.25
2022-08-17T06:03:54.164Z,18.52
2022-08-17T06:05:51.514Z,19.25
2022-08-17T06:07:37.710Z,16.13
2022-08-17T06:09:36.725Z,17.65
2022-08-17T06:11:24.015Z,16.10
2022-08-17T06:13:15.587Z,13.55
2022-08-17T06:15:10.748Z,11.93
2022-08-17T06:16:55.675Z,15.25
2022-08-17T06:18:43.332Z,11.02
2022-08-17T06:20:28.333Z,13.45
2022-08-17T06:22:12.987Z,16.08
2022-08-17T06:24:00.687Z,16.33
2022-08-17T06:25:48.304Z,11.25
2022-08-17T06:27:37.438Z,16.52
2022-08-17T06:29:28.035Z,14.18
2022-08-17T06:31:16.418Z,10.98
2022-08-17T06:33:02.787Z,15.13
2022-08-17T06:34:46.365Z,13.80
2022-08-17T06:36:48.196Z,12.05
2022-08-17T06:38:38.480Z,16.52
2022-08-17T06:40:38.348Z,11.57
2022-08-17T06:43:02.847Z,15.32
2022-08-17T06:44:47.546Z,11.23
2022-08-17T06:46:38.221Z,10.05
2022-08-17T06:48:25.792Z,11.25
2022-08-17T06:50:15.500Z,12.10
2022-08-17T06:52:02.010Z,13.30
2022-08-17T06:53:49.258Z,9.40
2022-08-17T06:55:38.238Z,11.02
2022-08-17T06:57:23.616Z,8.48
2022-08-17T06:59:07.428Z,9.40
2022-08-17T07:00:58.085Z,8.05
2022-08-17T07:03:02.552Z,6.85
2022-08-17T07:04:45.186Z,9.82
2022-08-17T07:06:30.872Z,8.95
2022-08-17T07:08:18.502Z,7.22
2022-08-17T07:10:01.950Z,8.48
2022-08-17T07:11:51.055Z,7.78
2022-08-17T07:13:43.747Z,7.13
2022-08-17T07:15:44.928Z,6.88
2022-08-17T07:17:46.955Z,7.28
2022-08-17T07:19:33.623Z,5.53
2022-08-17T07:21:26.516Z,5.70
2022-08-17T07:23:13.536Z,5.88
2022-08-17T07:24:58.463Z,11.30
2022-08-17T07:26:40.536Z,10.63
2022-08-17T07:28:24.773Z,7.80
2022-08-17T07:30:10.941Z,8.32
2022-08-17T07:31:53.373Z,8.07
2022-08-17T07:33:39.349Z,9.68
2022-08-17T07:35:24.026Z,11.55
2022-08-17T07:37:20.796Z,7.32
2022-08-17T07:39:04.075Z,8.20
2022-08-17T07:40:49.958Z,9.98
2022-08-17T07:42:33.847Z,10.68
2022-08-17T07:44:18.115Z,9.00
2022-08-17T07:46:24.565Z,6.20
2022-08-17T07:48:20.987Z,5.93
2022-08-17T07:50:03.107Z,8.52
2022-08-17T07:51:59.978Z,5.28
2022-08-17T07:54:13.226Z,8.38
2022-08-17T07:55:56.882Z,7.72
2022-08-17T07:57:39.556Z,6.43
2022-08-17T07:59:24.377Z,6.35
2022-08-17T08:01:13.264Z,8.40
2022-08-17T08:03:07.187Z,5.28
2022-08-17T08:05:01.128Z,7.32
2022-08-17T08:06:49.406Z,8.35
2022-08-17T08:08:36.503Z,5.55
2022-08-17T08:10:29.888Z,6.18
2022-08-17T08:12:34.036Z,6.40
2022-08-17T08:14:28.334Z,5.38
2022-08-17T08:16:20.959Z,6.00
2022-08-17T08:18:05.378Z,4.30
2022-08-17T08:19:47.304Z,4.95
2022-08-17T08:21:43.316Z,3.70
2022-08-17T08:23:35.029Z,4.00
2022-08-17T08:25:24.191Z,8.95
2022-08-17T08:27:18.394Z,4.78
2022-08-17T08:29:09.600Z,4.80
2022-08-17T08:31:03.502Z,4.35
2022-08-17T08:32:57.235Z,6.60
2022-08-17T08:35:02.121Z,3.60
2022-08-17T08:37:17.645Z,4.53
2022-08-17T08:39:06.800Z,6.07
2022-08-17T08:41:00.880Z,4.45
2022-08-17T08:42:50.929Z,6.93
2022-08-17T08:44:59.769Z,4.22
2022-08-17T08:46:50.774Z,9.43
2022-08-17T08:48:56.551Z,5.68
2022-08-17T08:50:45.979Z,4.97
2022-08-17T08:52:39.605Z,3.25
2022-08-17T08:54:33.498Z,3.17
2022-08-17T08:56:17.131Z,6.22
2022-08-17T08:58:04.173Z,3.22
2022-08-17T08:59:58.366Z,5.05
2022-08-17T09:01:49.612Z,7.30
2022-08-17T09:03:53.067Z,4.13
2022-08-17T09:05:57.457Z,3.65
2022-08-17T09:07:44.272Z,3.78
2022-08-17T09:09:35.152Z,3.78
2022-08-17T09:11:23.417Z,3.17
2022-08-17T09:13:14.442Z,6.15
2022-08-17T09:14:59.485Z,7.78
2022-08-17T09:16:45.930Z,4.38
2022-08-17T09:19:02.817Z,6.10
2022-08-17T09:20:48.090Z,2.80
2022-08-17T09:22:36.527Z,2.75
2022-08-17T09:24:25.077Z,3.35
2022-08-17T09:26:12.820Z,4.10
2022-08-17T09:27:58.486Z,5.50
2022-08-17T09:29:48.337Z,3.55
2022-08-17T09:31:35.519Z,3.33
2022-08-17T09:33:35.765Z,2.70
2022-08-17T09:35:19.999Z,3.00
2022-08-17T09:37:10.219Z,3.70
2022-08-17T09:38:58.695Z,2.40
2022-08-17T09:40:44.851Z,2.80
2022-08-17T09:42:31.300Z,5.93
2022-08-17T09:44:22.910Z,8.40
2022-08-17T09:46:10.425Z,3.58
2022-08-17T09:47:57.853Z,4.32
2022-08-17T09:49:46.981Z,5.10
2022-08-17T09:51:33.510Z,4.45
2022-08-17T09:53:15.448Z,3.85
2022-08-17T09:54:58.875Z,3.42
2022-08-17T09:56:48.257Z,3.92
2022-08-17T09:58:41.958Z,3.70
2022-08-17T10:00:26.900Z,2.28
2022-08-17T10:02:29.947Z,2.80
2022-08-17T10:04:32.993Z,5.40
2022-08-17T10:06:22.270Z,4.72
2022-08-17T10:08:13.077Z,2.95
2022-08-17T10:09:59.242Z,7.47
2022-08-17T10:12:02.529Z,3.72
2022-08-17T10:13:53.037Z,3.20
2022-08-17T10:15:43.931Z,3.30
2022-08-17T10:17:29.474Z,4.05
2022-08-17T10:19:17.337Z,3.85
2022-08-17T10:21:21.181Z,4.45
2022-08-17T10:23:25.383Z,4.43
2022-08-17T10:25:37.822Z,2.55
2022-08-17T10:27:33.552Z,4.25
2022-08-17T10:29:19.751Z,2.47
2022-08-17T10:31:33.198Z,4.65
2022-08-17T10:33:14.412Z,7.72
2022-08-17T10:35:33.931Z,4.30
2022-08-17T10:37:40.541Z,2.80
2022-08-17T10:39:31.674Z,7.55
2022-08-17T10:41:30.385Z,2.70
2022-08-17T10:43:22.774Z,4.35
2022-08-17T10:45:16.256Z,6.00
2022-08-17T10:47:06.495Z,6.32
2022-08-17T10:49:16.276Z,6.15
2022-08-17T10:51:06.010Z,4.78
2022-08-17T10:52:55.869Z,3.45
2022-08-17T10:54:48.202Z,7.13
2022-08-17T10:56:51.380Z,3.70
2022-08-17T10:58:39.413Z,3.28
2022-08-17T11:01:04.210Z,4.90
2022-08-17T11:02:51.228Z,3.38
2022-08-17T11:04:47.773Z,2.65
2022-08-17T11:06:36.141Z,5.05
2022-08-17T11:08:38.563Z,6.07
2022-08-17T11:10:46.423Z,2.90
2022-08-17T11:12:39.627Z,4.15
2022-08-17T11:14:44.103Z,5.38
2022-08-17T11:16:39.023Z,5.90
2022-08-17T11:18:41.773Z,6.40
2022-08-17T11:20:55.734Z,3.05
2022-08-17T11:23:09.034Z,2.67
2022-08-17T11:24:52.037Z,3.90
2022-08-17T11:26:38.474Z,3.35
2022-08-17T11:28:23.680Z,2.80
2022-08-17T11:30:09.396Z,3.13
2022-08-17T11:32:03.817Z,3.00
2022-08-17T11:34:02.130Z,2.67
2022-08-17T11:35:49.701Z,2.63
2022-08-17T11:37:41.839Z,3.50
2022-08-17T11:40:05.760Z,5.35
2022-08-17T11:41:55.000Z,3.38
2022-08-17T11:44:02.231Z,3.00
2022-08-17T11:46:08.337Z,4.25
2022-08-17T11:48:29.065Z,3.47
2022-08-17T11:50:50.367Z,2.85
2022-08-17T11:52:41.271Z,3.55
2022-08-17T11:54:42.462Z,10.98
2022-08-17T11:56:41.041Z,4.55
2022-08-17T11:58:40.304Z,3.20
2022-08-17T12:00:42.436Z,5.72
2022-08-17T12:02:48.101Z,3.15
2022-08-17T12:04:32.118Z,7.15
2022-08-17T12:06:24.564Z,5.25
2022-08-17T12:08:21.688Z,3.28
2022-08-17T12:10:31.984Z,7.22
2022-08-17T12:12:16.852Z,3.10
2022-08-17T12:14:01.754Z,2.80
2022-08-17T12:15:48.718Z,3.88
2022-08-17T12:17:40.615Z,3.28
2022-08-17T12:19:27.481Z,2.80
2022-08-17T12:21:30.860Z,3.17
2022-08-17T12:23:20.045Z,4.07
2022-08-17T12:25:05.878Z,3.65
2022-08-17T12:26:53.982Z,4.72
2022-08-17T12:28:38.634Z,3.90
2022-08-17T12:30:23.362Z,2.97
2022-08-17T12:32:08.359Z,5.75
2022-08-17T12:33:51.675Z,3.38
2022-08-17T12:35:38.873Z,5.03
2022-08-17T12:37:24.782Z,4.25
2022-08-17T12:39:13.018Z,2.95
2022-08-17T12:40:58.359Z,2.63
2022-08-17T12:42:41.647Z,3.28
2022-08-17T12:44:28.806Z,3.70
2022-08-17T12:46:19.151Z,5.15
2022-08-17T12:48:02.691Z,3.88
2022-08-17T12:49:45.636Z,2.60
2022-08-17T12:51:29.077Z,4.03
2022-08-17T12:53:13.200Z,4.30
2022-08-17T12:54:58.082Z,3.20
2022-08-17T12:56:42.186Z,2.92
2022-08-17T12:58:26.685Z,2.22
2022-08-17T13:00:15.760Z,2.50
2022-08-17T13:01:59.198Z,3.08
2022-08-17T13:03:44.179Z,2.05
2022-08-17T13:05:28.621Z,2.22
2022-08-17T13:07:11.972Z,4.63
2022-08-17T13:08:53.868Z,3.67
2022-08-17T13:10:37.758Z,3.45
2022-08-17T13:12:28.357Z,3.60
2022-08-17T13:14:12.071Z,2.60
2022-08-17T13:15:55.304Z,2.40
2022-08-17T13:17:57.997Z,4.22
2022-08-17T13:19:48.979Z,2.65
2022-08-17T13:21:33.111Z,2.88
2022-08-17T13:23:21.529Z,2.67
2022-08-17T13:25:07.437Z,3.55
2022-08-17T13:26:52.304Z,3.83
2022-08-17T13:28:35.974Z,3.00
2022-08-17T13:30:23.955Z,5.68
2022-08-17T13:32:27.374Z,2.42
2022-08-17T13:34:19.187Z,3.00
2022-08-17T13:36:08.815Z,4.82
2022-08-17T13:38:02.385Z,4.95
2022-08-17T13:39:45.845Z,3.45
2022-08-17T13:41:35.480Z,3.58
2022-08-17T13:43:40.864Z,4.40
2022-08-17T13:45:39.050Z,7.28
2022-08-17T13:47:22.326Z,5.43
2022-08-17T13:49:05.980Z,2.90
2022-08-17T13:51:02.585Z,2.90
2022-08-17T13:52:48.779Z,7.45
2022-08-17T13:54:35.773Z,5.70
2022-08-17T13:56:38.781Z,5.13
2022-08-17T13:58:23.211Z,3.20
2022-08-17T14:00:12.517Z,4.03
2022-08-17T14:01:55.053Z,6.53
2022-08-17T14:03:37.152Z,7.25
2022-08-17T14:05:19.598Z,5.53
2022-08-17T14:07:05.546Z,5.05
2022-08-17T14:08:47.775Z,4.10
2022-08-17T14:10:30.887Z,2.92
2022-08-17T14:12:15.686Z,2.60
2022-08-17T14:13:58.703Z,4.78
2022-08-17T14:15:56.243Z,4.18
2022-08-17T14:17:39.618Z,6.03
2022-08-17T14:19:22.942Z,3.58
2022-08-17T14:21:05.073Z,4.05
2022-08-17T14:22:55.890Z,3.28
2022-08-17T14:24:44.661Z,3.10
2022-08-17T14:26:27.622Z,3.10
2022-08-17T14:28:09.540Z,5.82
2022-08-17T14:29:53.217Z,4.10
2022-08-17T14:31:37.706Z,3.78
2022-08-17T14:33:22.543Z,4.20
2022-08-17T14:35:06.176Z,5.45
2022-08-17T14:36:48.853Z,3.15
2022-08-17T14:38:32.450Z,4.07
2022-08-17T14:40:15.982Z,7.13
2022-08-17T14:41:58.522Z,2.80
2022-08-17T14:43:40.857Z,5.22
2022-08-17T14:45:30.487Z,4.10
2022-08-17T14:47:15.789Z,2.90
2022-08-17T14:48:58.011Z,3.28
2022-08-17T14:50:42.199Z,3.20
2022-08-17T14:52:24.474Z,4.00
2022-08-17T14:54:07.928Z,3.47
2022-08-17T14:55:51.768Z,5.93
2022-08-17T14:57:34.647Z,4.00
2022-08-17T14:59:17.951Z,5.47
2022-08-17T15:00:59.837Z,3.85
2022-08-17T15:02:48.208Z,3.03
2022-08-17T15:04:30.190Z,8.35
2022-08-17T15:06:15.291Z,3.47
2022-08-17T15:07:58.790Z,4.55
2022-08-17T15:09:42.137Z,10.40
2022-08-17T15:11:26.888Z,4.15
2022-08-17T15:13:17.011Z,3.53
2022-08-17T15:15:00.744Z,4.47
2022-08-17T15:16:42.992Z,3.70
2022-08-17T15:18:25.249Z,6.22
2022-08-17T15:20:14.584Z,3.90
2022-08-17T15:21:57.006Z,5.00
2022-08-17T15:23:40.312Z,5.13
2022-08-17T15:25:31.176Z,4.47
2022-08-17T15:27:13.209Z,3.90
2022-08-17T15:28:56.962Z,7.07
2022-08-17T15:30:42.916Z,5.72
2022-08-17T15:32:29.504Z,6.10
2022-08-17T15:34:11.889Z,5.47
2022-08-17T15:35:54.432Z,3.15
2022-08-17T15:37:36.852Z,6.68
2022-08-17T15:39:19.517Z,5.18
2022-08-17T15:41:04.023Z,3.78
2022-08-17T15:42:46.042Z,5.32
2022-08-17T15:44:32.445Z,4.32
2022-08-17T15:46:18.683Z,7.93
2022-08-17T15:48:00.953Z,5.38
2022-08-17T15:49:43.654Z,3.25
2022-08-17T15:51:28.171Z,3.30
2022-08-17T15:53:10.468Z,3.78
2022-08-17T15:54:57.791Z,3.65
2022-08-17T15:56:41.910Z,3.30
2022-08-17T15:58:30.083Z,4.80
2022-08-17T16:00:16.399Z,5.28
2022-08-17T16:03:14.330Z,4.22
2022-08-17T16:04:06.803Z,4.78
2022-08-17T16:05:50.191Z,3.15
2022-08-17T16:07:32.788Z,4.13
2022-08-17T16:09:15.095Z,7.55
2022-08-17T16:10:58.618Z,6.05
2022-08-17T16:12:42.497Z,4.10
2022-08-17T16:14:24.709Z,3.47
2022-08-17T16:16:15.860Z,5.40
2022-08-17T16:17:57.990Z,4.13
2022-08-17T16:19:41.224Z,3.88
2022-08-17T16:21:31.291Z,3.28
2022-08-17T16:23:25.833Z,4.35
2022-08-17T16:25:11.210Z,4.05
2022-08-17T16:26:53.377Z,4.28
2022-08-17T16:28:37.239Z,3.25
2022-08-17T16:30:19.384Z,5.63
2022-08-17T16:32:09.845Z,4.32
2022-08-17T16:34:16.117Z,3.20
2022-08-17T16:35:54.571Z,5.13
2022-08-17T16:37:37.169Z,5.75
2022-08-17T16:39:19.438Z,4.07
2022-08-17T16:41:02.144Z,3.97
2022-08-17T16:42:46.773Z,5.50
2022-08-17T16:44:31.983Z,5.72
2022-08-17T16:46:14.054Z,5.93
2022-08-17T16:47:59.093Z,4.03
2022-08-17T16:49:41.360Z,6.03
2022-08-17T16:51:23.585Z,5.38
2022-08-17T16:53:07.798Z,6.63
2022-08-17T16:54:50.069Z,4.03
2022-08-17T16:56:36.113Z,4.53
2022-08-17T16:58:18.102Z,3.38
2022-08-17T17:00:01.901Z,5.40
2022-08-17T17:01:44.053Z,5.82
2022-08-17T17:03:28.104Z,6.15
2022-08-17T17:05:18.146Z,6.10
2022-08-17T17:07:05.362Z,3.50
2022-08-17T17:08:49.507Z,5.10
2022-08-17T17:10:37.290Z,3.80
2022-08-17T17:12:32.260Z,3.30
2022-08-17T17:14:28.360Z,4.45
2022-08-17T17:16:21.489Z,4.00
2022-08-17T17:18:06.887Z,4.43
2022-08-17T17:19:52.623Z,5.88
2022-08-17T17:21:38.598Z,4.72
2022-08-17T17:23:37.314Z,4.32
2022-08-17T17:25:25.859Z,10.75
2022-08-17T17:27:16.502Z,4.57
2022-08-17T17:29:23.589Z,4.30
2022-08-17T17:31:09.510Z,4.13
2022-08-17T17:32:56.424Z,6.40
2022-08-17T17:34:41.607Z,5.65
2022-08-17T17:36:27.782Z,6.28
2022-08-17T17:38:16.064Z,6.63
2022-08-17T17:40:01.993Z,4.47
2022-08-17T17:41:50.846Z,6.28
2022-08-17T17:43:41.368Z,4.22
2022-08-17T17:45:25.922Z,5.93
2022-08-17T17:47:08.138Z,4.32
2022-08-17T17:48:51.396Z,6.53
2022-08-17T17:50:38.205Z,8.80
2022-08-17T17:52:27.097Z,3.75
2022-08-17T17:54:18.544Z,3.80
2022-08-17T17:56:06.632Z,3.83
2022-08-17T17:58:12.597Z,7.72
2022-08-17T18:00:01.511Z,4.43
2022-08-17T18:01:50.500Z,4.65
2022-08-17T18:03:46.060Z,5.85
2022-08-17T18:05:53.553Z,11.02
2022-08-17T18:07:42.168Z,5.28
2022-08-17T18:09:34.505Z,7.03
2022-08-17T18:11:27.108Z,8.88
2022-08-17T18:13:26.706Z,6.68
2022-08-17T18:15:24.169Z,10.98
2022-08-17T18:17:07.728Z,12.10
2022-08-17T18:18:52.205Z,6.32
2022-08-17T18:20:43.489Z,6.05
2022-08-17T18:22:37.081Z,7.28
2022-08-17T18:24:31.299Z,8.73
2022-08-17T18:26:13.274Z,7.75
2022-08-17T18:27:55.756Z,6.45
2022-08-17T18:29:43.980Z,18.88
2022-08-17T18:31:26.487Z,7.07
2022-08-17T18:33:23.114Z,8.88
2022-08-17T18:35:34.970Z,9.45
2022-08-17T18:37:38.111Z,8.23
2022-08-17T18:39:22.021Z,5.00
2022-08-17T18:41:08.385Z,11.23
2022-08-17T18:42:59.862Z,6.05
2022-08-17T18:44:44.958Z,9.13
2022-08-17T18:46:30.502Z,12.27
2022-08-17T18:48:25.823Z,4.85
2022-08-17T18:50:23.416Z,13.55
2022-08-17T18:52:13.538Z,7.90
2022-08-17T18:54:08.585Z,10.65
2022-08-17T18:55:51.319Z,9.02
2022-08-17T18:57:35.633Z,5.90
2022-08-17T18:59:30.780Z,7.10
2022-08-17T19:01:20.486Z,6.88
2022-08-17T19:03:07.110Z,6.10
2022-08-17T19:05:13.195Z,5.68
2022-08-17T19:07:05.576Z,5.28
2022-08-17T19:08:47.503Z,9.10
2022-08-17T19:10:46.445Z,7.28
2022-08-17T19:12:33.262Z,8.00
2022-08-17T19:14:16.657Z,8.07
2022-08-17T19:16:14.035Z,8.00
2022-08-17T19:18:00.807Z,9.57
2022-08-17T19:19:49.262Z,6.45
2022-08-17T19:21:37.121Z,7.85
2022-08-17T19:23:24.719Z,7.03
2022-08-17T19:25:16.151Z,7.30
2022-08-17T19:27:01.802Z,11.40
2022-08-17T19:28:53.185Z,7.70
2022-08-17T19:30:34.999Z,9.40
2022-08-17T19:32:19.245Z,8.38
2022-08-17T19:34:02.959Z,11.57
2022-08-17T19:35:50.957Z,5.65
2022-08-17T19:37:37.967Z,9.60
2022-08-17T19:39:37.989Z,8.10
2022-08-17T19:41:24.696Z,7.80
2022-08-17T19:43:17.547Z,10.88
2022-08-17T19:45:05.443Z,7.47
2022-08-17T19:46:56.177Z,8.52
2022-08-17T19:48:47.919Z,7.40
2022-08-17T19:50:38.309Z,10.98
2022-08-17T19:52:46.445Z,10.75
2022-08-17T19:54:35.001Z,9.70
2022-08-17T19:56:22.963Z,9.38
2022-08-17T19:58:11.077Z,7.03
2022-08-17T20:00:03.497Z,8.27
2022-08-17T20:01:48.819Z,8.15
2022-08-17T20:03:35.752Z,7.45
2022-08-17T20:05:21.125Z,11.70
2022-08-17T20:07:07.436Z,12.05
2022-08-17T20:08:59.524Z,9.95
2022-08-17T20:10:48.094Z,7.60
2022-08-17T20:12:40.512Z,9.60
2022-08-17T20:14:26.283Z,10.10
2022-08-17T20:16:10.010Z,9.35
2022-08-17T20:17:52.695Z,9.65
2022-08-17T20:19:41.031Z,10.20
2022-08-17T20:21:28.677Z,12.38
2022-08-17T20:23:14.953Z,9.85
2022-08-17T20:25:03.622Z,9.88
2022-08-17T20:26:58.703Z,8.95
2022-08-17T20:29:31.890Z,8.50
2022-08-17T20:31:45.497Z,9.85
2022-08-17T20:33:30.930Z,6.68
2022-08-17T20:35:25.939Z,11.65
2022-08-17T20:37:10.162Z,8.73
2022-08-17T20:38:55.082Z,10.73
2022-08-17T20:40:40.031Z,8.15
2022-08-17T20:42:33.596Z,12.35
2022-08-17T20:44:33.557Z,9.50
2022-08-17T20:46:46.239Z,7.40
2022-08-17T20:48:38.901Z,8.20
2022-08-17T20:50:30.210Z,11.10
2022-08-17T20:52:16.532Z,8.07
2022-08-17T20:54:08.555Z,11.00
2022-08-17T20:55:55.802Z,8.40
2022-08-17T20:57:48.979Z,7.95
2022-08-17T21:00:02.644Z,8.35
2022-08-17T21:02:06.646Z,13.23
2022-08-17T21:03:56.038Z,7.47
2022-08-17T21:06:00.053Z,9.93
2022-08-17T21:07:57.999Z,8.85
2022-08-17T21:09:40.400Z,10.25
2022-08-17T21:12:02.751Z,9.38
2022-08-17T21:14:04.969Z,9.73
2022-08-17T21:15:53.006Z,6.88
2022-08-17T21:17:41.949Z,13.23
2022-08-17T21:19:49.037Z,7.47
2022-08-17T21:21:44.842Z,9.52
2022-08-17T21:23:42.219Z,8.18
2022-08-17T21:25:42.978Z,6.82
2022-08-17T21:27:34.652Z,9.02
2022-08-17T21:29:32.339Z,10.88
2022-08-17T21:31:34.555Z,6.70
2022-08-17T21:33:25.028Z,7.43
2022-08-17T21:35:29.999Z,7.30
2022-08-17T21:37:34.147Z,11.18
2022-08-17T21:39:17.785Z,11.38
2022-08-17T21:41:03.553Z,8.23
2022-08-17T21:42:48.312Z,6.13
2022-08-17T21:44:34.304Z,8.32
2022-08-17T21:46:25.567Z,5.70
2022-08-17T21:48:10.996Z,6.10
2022-08-17T21:49:55.145Z,13.32
2022-08-17T21:51:39.227Z,9.90
2022-08-17T21:53:32.229Z,11.13
2022-08-17T21:55:23.234Z,9.27
2022-08-17T21:57:08.794Z,16.88
2022-08-17T21:58:57.444Z,6.55
2022-08-17T22:00:39.915Z,7.70
2022-08-17T22:02:24.020Z,9.40
2022-08-17T22:04:17.864Z,12.55
2022-08-17T22:06:20.605Z,7.00
2022-08-17T22:08:07.684Z,6.00
2022-08-17T22:09:58.838Z,7.25
2022-08-17T22:12:02.244Z,6.93
2022-08-17T22:13:44.458Z,8.40
2022-08-17T22:15:26.503Z,7.70
2022-08-17T22:17:16.529Z,6.75
2022-08-17T22:18:59.942Z,10.50
2022-08-17T22:20:42.768Z,12.20
2022-08-17T22:22:56.128Z,9.57
2022-08-17T22:24:37.854Z,10.93
2022-08-17T22:26:21.605Z,7.07
2022-08-17T22:28:05.882Z,6.90
2022-08-17T22:29:58.069Z,6.20
2022-08-17T22:31:56.196Z,8.32
2022-08-17T22:33:42.309Z,8.52
2022-08-17T22:35:35.432Z,6.60
2022-08-17T22:37:29.687Z,6.50
2022-08-17T22:39:42.898Z,8.52
2022-08-17T22:41:42.953Z,6.63
2022-08-17T22:43:26.648Z,6.97
2022-08-17T22:45:10.218Z,10.52
2022-08-17T22:46:57.019Z,7.13
2022-08-17T22:48:41.125Z,12.07
2022-08-17T22:50:25.189Z,7.15
2022-08-17T22:52:23.703Z,7.65
2022-08-17T22:54:35.708Z,11.93
2022-08-17T22:56:40.521Z,6.60
2022-08-17T22:58:42.554Z,9.85
2022-08-17T23:00:34.399Z,8.13
2022-08-17T23:02:23.466Z,6.97
2022-08-17T23:04:08.854Z,7.63
2022-08-17T23:06:06.602Z,7.85
2022-08-17T23:07:52.256Z,10.15
2022-08-17T23:09:34.440Z,8.90
2022-08-17T23:11:16.797Z,6.85
2022-08-17T23:13:01.552Z,10.15
2022-08-17T23:14:45.674Z,15.45
2022-08-17T23:16:29.520Z,10.02
2022-08-17T23:18:12.034Z,8.90
2022-08-17T23:19:55.430Z,8.45
2022-08-17T23:21:38.217Z,8.70
2022-08-17T23:23:23.527Z,9.10
2022-08-17T23:25:07.103Z,8.80
2022-08-17T23:26:49.232Z,10.55
2022-08-17T23:28:37.409Z,8.50
2022-08-17T23:30:19.714Z,7.93
2022-08-17T23:32:03.972Z,11.77
2022-08-17T23:33:45.959Z,9.05
2022-08-17T23:35:39.845Z,10.77
2022-08-17T23:37:22.674Z,8.10
2022-08-17T23:39:05.714Z,7.30
2022-08-17T23:40:47.897Z,9.52
2022-08-17T23:42:30.956Z,8.18
2022-08-17T23:44:14.736Z,8.25
2022-08-17T23:45:58.489Z,11.27
2022-08-17T23:47:40.819Z,10.75
2022-08-17T23:49:24.449Z,11.63
2022-08-17T23:51:09.718Z,13.20
2022-08-17T23:52:53.521Z,9.25
2022-08-17T23:54:43.593Z,9.50